sensor_id;sensor_type;location;lat;lon;timestamp;P1;durP1;ratioP1;P2;durP2;ratioP2
45274;SDS011;31019;43.780;25.948;2022-07-29T00:00:38;70.10;;;63.50;;
45274;SDS011;31019;43.780;25.948;2022-07-29T00:03:05;55.95;;;50.30;;
45274;SDS011;31019;43.780;25.948;2022-07-29T00:05:32;80.05;;;73.10;;
45274;SDS011;31019;43.780;25.948;2022-07-29T00:07:59;47.17;;;42.33;;
45274;SDS011;31019;43.780;25.948;2022-07-29T00:10:27;49.28;;;44.50;;
45274;SDS011;31019;43.780;25.948;2022-07-29T00:12:54;50.50;;;45.30;;
45274;SDS011;31019;43.780;25.948;2022-07-29T00:15:21;54.88;;;49.67;;
45274;SDS011;31019;43.780;25.948;2022-07-29T00:17:49;54.20;;;48.85;;
45274;SDS011;31019;43.780;25.948;2022-07-29T00:20:15;52.28;;;47.03;;
45274;SDS011;31019;43.780;25.948;2022-07-29T00:22:43;56.22;;;50.80;;
45274;SDS011;31019;43.780;25.948;2022-07-29T00:25:10;63.22;;;57.25;;
45274;SDS011;31019;43.780;25.948;2022-07-29T00:27:40;55.50;;;50.20;;
45274;SDS011;31019;43.780;25.948;2022-07-29T00:30:07;66.95;;;60.72;;
45274;SDS011;31019;43.780;25.948;2022-07-29T00:32:35;63.42;;;57.92;;
45274;SDS011;31019;43.780;25.948;2022-07-29T00:35:01;53.50;;;48.00;;
45274;SDS011;31019;43.780;25.948;2022-07-29T00:37:46;56.38;;;50.83;;
45274;SDS011;31019;43.780;25.948;2022-07-29T00:40:13;57.85;;;52.65;;
45274;SDS011;31019;43.780;25.948;2022-07-29T00:42:45;69.53;;;63.53;;
45274;SDS011;31019;43.780;25.948;2022-07-29T00:45:13;58.53;;;52.83;;
45274;SDS011;31019;43.780;25.948;2022-07-29T00:47:41;59.40;;;53.60;;
45274;SDS011;31019;43.780;25.948;2022-07-29T00:50:09;69.32;;;62.50;;
45274;SDS011;31019;43.780;25.948;2022-07-29T00:52:38;57.50;;;51.70;;
45274;SDS011;31019;43.780;25.948;2022-07-29T00:55:07;54.22;;;48.88;;
45274;SDS011;31019;43.780;25.948;2022-07-29T00:57:35;57.40;;;51.90;;
45274;SDS011;31019;43.780;25.948;2022-07-29T01:00:04;56.15;;;50.85;;
45274;SDS011;31019;43.780;25.948;2022-07-29T01:02:33;52.35;;;47.00;;
45274;SDS011;31019;43.780;25.948;2022-07-29T01:05:00;66.60;;;60.60;;
45274;SDS011;31019;43.780;25.948;2022-07-29T01:07:27;54.45;;;49.33;;
45274;SDS011;31019;43.780;25.948;2022-07-29T01:09:56;54.80;;;49.72;;
45274;SDS011;31019;43.780;25.948;2022-07-29T01:12:25;61.30;;;56.05;;
45274;SDS011;31019;43.780;25.948;2022-07-29T01:14:54;57.75;;;52.75;;
45274;SDS011;31019;43.780;25.948;2022-07-29T01:17:25;56.75;;;51.03;;
45274;SDS011;31019;43.780;25.948;2022-07-29T01:19:56;51.35;;;46.33;;
45274;SDS011;31019;43.780;25.948;2022-07-29T01:22:31;54.60;;;49.28;;
45274;SDS011;31019;43.780;25.948;2022-07-29T01:25:21;56.83;;;51.58;;
45274;SDS011;31019;43.780;25.948;2022-07-29T01:28:08;80.43;;;73.55;;
45274;SDS011;31019;43.780;25.948;2022-07-29T01:30:51;46.53;;;42.22;;
45274;SDS011;31019;43.780;25.948;2022-07-29T01:33:20;52.65;;;47.63;;
45274;SDS011;31019;43.780;25.948;2022-07-29T01:36:10;53.92;;;48.85;;
45274;SDS011;31019;43.780;25.948;2022-07-29T01:38:41;52.67;;;47.47;;
45274;SDS011;31019;43.780;25.948;2022-07-29T01:41:09;64.03;;;58.55;;
45274;SDS011;31019;43.780;25.948;2022-07-29T01:43:44;54.90;;;49.78;;
45274;SDS011;31019;43.780;25.948;2022-07-29T01:46:17;53.92;;;48.97;;
45274;SDS011;31019;43.780;25.948;2022-07-29T01:48:52;52.17;;;46.72;;
45274;SDS011;31019;43.780;25.948;2022-07-29T01:51:24;61.92;;;56.33;;
45274;SDS011;31019;43.780;25.948;2022-07-29T01:53:58;53.70;;;48.80;;
45274;SDS011;31019;43.780;25.948;2022-07-29T01:56:30;64.45;;;59.05;;
45274;SDS011;31019;43.780;25.948;2022-07-29T01:58:59;61.50;;;56.22;;
45274;SDS011;31019;43.780;25.948;2022-07-29T02:01:29;49.90;;;45.47;;
45274;SDS011;31019;43.780;25.948;2022-07-29T02:03:57;48.92;;;44.22;;
45274;SDS011;31019;43.780;25.948;2022-07-29T02:06:26;64.63;;;59.05;;
45274;SDS011;31019;43.780;25.948;2022-07-29T02:08:54;60.80;;;55.45;;
45274;SDS011;31019;43.780;25.948;2022-07-29T02:11:24;65.25;;;59.53;;
45274;SDS011;31019;43.780;25.948;2022-07-29T02:13:51;62.80;;;57.17;;
45274;SDS011;31019;43.780;25.948;2022-07-29T02:16:21;55.08;;;49.88;;
45274;SDS011;31019;43.780;25.948;2022-07-29T02:24:09;60.05;;;54.97;;
45274;SDS011;31019;43.780;25.948;2022-07-29T02:26:43;51.88;;;47.10;;
45274;SDS011;31019;43.780;25.948;2022-07-29T02:29:16;55.03;;;49.88;;
45274;SDS011;31019;43.780;25.948;2022-07-29T02:32:04;50.28;;;45.53;;
45274;SDS011;31019;43.780;25.948;2022-07-29T02:34:42;56.75;;;51.75;;
45274;SDS011;31019;43.780;25.948;2022-07-29T02:37:11;48.70;;;44.05;;
45274;SDS011;31019;43.780;25.948;2022-07-29T02:42:11;46.25;;;42.00;;
45274;SDS011;31019;43.780;25.948;2022-07-29T02:44:42;49.45;;;44.67;;
45274;SDS011;31019;43.780;25.948;2022-07-29T02:47:18;49.15;;;44.88;;
45274;SDS011;31019;43.780;25.948;2022-07-29T02:50:03;48.78;;;44.67;;
45274;SDS011;31019;43.780;25.948;2022-07-29T02:52:38;46.70;;;42.80;;
45274;SDS011;31019;43.780;25.948;2022-07-29T02:55:18;54.08;;;49.38;;
45274;SDS011;31019;43.780;25.948;2022-07-29T03:00:21;43.85;;;40.05;;
45274;SDS011;31019;43.780;25.948;2022-07-29T03:02:52;41.85;;;38.35;;
45274;SDS011;31019;43.780;25.948;2022-07-29T03:05:31;43.92;;;40.47;;
45274;SDS011;31019;43.780;25.948;2022-07-29T03:08:00;41.25;;;37.75;;
45274;SDS011;31019;43.780;25.948;2022-07-29T03:10:29;39.33;;;35.92;;
45274;SDS011;31019;43.780;25.948;2022-07-29T03:12:57;39.85;;;36.45;;
45274;SDS011;31019;43.780;25.948;2022-07-29T03:15:24;41.58;;;38.25;;
45274;SDS011;31019;43.780;25.948;2022-07-29T03:17:53;43.15;;;39.53;;
45274;SDS011;31019;43.780;25.948;2022-07-29T03:20:20;41.83;;;38.22;;
45274;SDS011;31019;43.780;25.948;2022-07-29T03:22:49;41.30;;;37.63;;
45274;SDS011;31019;43.780;25.948;2022-07-29T03:25:18;42.50;;;38.72;;
45274;SDS011;31019;43.780;25.948;2022-07-29T03:27:46;42.13;;;38.53;;
45274;SDS011;31019;43.780;25.948;2022-07-29T03:30:14;41.40;;;37.28;;
45274;SDS011;31019;43.780;25.948;2022-07-29T03:32:42;40.17;;;36.75;;
45274;SDS011;31019;43.780;25.948;2022-07-29T03:35:09;42.58;;;39.15;;
45274;SDS011;31019;43.780;25.948;2022-07-29T03:37:35;42.38;;;38.75;;
45274;SDS011;31019;43.780;25.948;2022-07-29T03:40:05;41.08;;;37.80;;
45274;SDS011;31019;43.780;25.948;2022-07-29T03:42:35;40.88;;;37.53;;
45274;SDS011;31019;43.780;25.948;2022-07-29T03:45:07;41.13;;;37.28;;
45274;SDS011;31019;43.780;25.948;2022-07-29T03:47:37;42.15;;;38.15;;
45274;SDS011;31019;43.780;25.948;2022-07-29T03:50:07;41.45;;;38.13;;
45274;SDS011;31019;43.780;25.948;2022-07-29T03:52:36;41.22;;;38.03;;
45274;SDS011;31019;43.780;25.948;2022-07-29T03:55:06;39.15;;;36.05;;
45274;SDS011;31019;43.780;25.948;2022-07-29T03:57:34;41.25;;;38.08;;
45274;SDS011;31019;43.780;25.948;2022-07-29T04:00:04;40.75;;;37.55;;
45274;SDS011;31019;43.780;25.948;2022-07-29T04:02:33;41.15;;;37.55;;
45274;SDS011;31019;43.780;25.948;2022-07-29T04:05:00;42.83;;;39.38;;
45274;SDS011;31019;43.780;25.948;2022-07-29T04:07:27;40.83;;;37.28;;
45274;SDS011;31019;43.780;25.948;2022-07-29T04:09:54;41.33;;;37.47;;
45274;SDS011;31019;43.780;25.948;2022-07-29T04:12:23;42.20;;;38.80;;
45274;SDS011;31019;43.780;25.948;2022-07-29T04:14:49;40.17;;;36.83;;
45274;SDS011;31019;43.780;25.948;2022-07-29T04:17:16;39.47;;;36.08;;
45274;SDS011;31019;43.780;25.948;2022-07-29T04:19:43;44.22;;;40.55;;
45274;SDS011;31019;43.780;25.948;2022-07-29T04:22:10;40.47;;;37.28;;
45274;SDS011;31019;43.780;25.948;2022-07-29T04:24:37;41.47;;;37.92;;
45274;SDS011;31019;43.780;25.948;2022-07-29T04:27:04;40.97;;;37.63;;
45274;SDS011;31019;43.780;25.948;2022-07-29T04:29:32;39.70;;;36.55;;
45274;SDS011;31019;43.780;25.948;2022-07-29T04:31:59;39.17;;;36.13;;
45274;SDS011;31019;43.780;25.948;2022-07-29T04:34:26;38.00;;;35.15;;
45274;SDS011;31019;43.780;25.948;2022-07-29T04:36:53;37.92;;;34.72;;
45274;SDS011;31019;43.780;25.948;2022-07-29T04:39:19;39.03;;;35.83;;
45274;SDS011;31019;43.780;25.948;2022-07-29T04:41:46;38.55;;;35.65;;
45274;SDS011;31019;43.780;25.948;2022-07-29T04:44:14;43.95;;;40.50;;
45274;SDS011;31019;43.780;25.948;2022-07-29T04:46:42;41.33;;;38.42;;
45274;SDS011;31019;43.780;25.948;2022-07-29T04:49:09;39.22;;;35.90;;
45274;SDS011;31019;43.780;25.948;2022-07-29T04:51:36;39.63;;;36.55;;
45274;SDS011;31019;43.780;25.948;2022-07-29T04:54:03;38.22;;;35.03;;
45274;SDS011;31019;43.780;25.948;2022-07-29T04:56:30;38.83;;;35.70;;
45274;SDS011;31019;43.780;25.948;2022-07-29T04:58:57;54.28;;;49.20;;
45274;SDS011;31019;43.780;25.948;2022-07-29T05:01:24;44.42;;;40.58;;
45274;SDS011;31019;43.780;25.948;2022-07-29T05:03:52;69.07;;;62.38;;
45274;SDS011;31019;43.780;25.948;2022-07-29T05:06:19;71.38;;;64.20;;
45274;SDS011;31019;43.780;25.948;2022-07-29T05:08:46;74.88;;;66.95;;
45274;SDS011;31019;43.780;25.948;2022-07-29T05:11:13;57.60;;;52.25;;
45274;SDS011;31019;43.780;25.948;2022-07-29T05:13:39;57.10;;;51.78;;
45274;SDS011;31019;43.780;25.948;2022-07-29T05:16:07;56.65;;;51.85;;
45274;SDS011;31019;43.780;25.948;2022-07-29T05:18:34;43.85;;;40.40;;
45274;SDS011;31019;43.780;25.948;2022-07-29T05:21:03;44.67;;;40.22;;
45274;SDS011;31019;43.780;25.948;2022-07-29T05:23:30;40.55;;;37.13;;
45274;SDS011;31019;43.780;25.948;2022-07-29T05:25:56;38.03;;;35.13;;
45274;SDS011;31019;43.780;25.948;2022-07-29T05:28:23;37.83;;;34.75;;
45274;SDS011;31019;43.780;25.948;2022-07-29T05:30:50;40.65;;;36.78;;
45274;SDS011;31019;43.780;25.948;2022-07-29T05:33:17;38.92;;;35.30;;
45274;SDS011;31019;43.780;25.948;2022-07-29T05:35:44;37.00;;;33.78;;
45274;SDS011;31019;43.780;25.948;2022-07-29T05:38:12;35.88;;;32.90;;
45274;SDS011;31019;43.780;25.948;2022-07-29T05:40:39;37.25;;;34.17;;
45274;SDS011;31019;43.780;25.948;2022-07-29T05:43:06;37.30;;;34.55;;
45274;SDS011;31019;43.780;25.948;2022-07-29T05:45:33;35.25;;;32.50;;
45274;SDS011;31019;43.780;25.948;2022-07-29T05:48:00;29.77;;;27.98;;
45274;SDS011;31019;43.780;25.948;2022-07-29T05:50:26;29.55;;;27.58;;
45274;SDS011;31019;43.780;25.948;2022-07-29T05:52:53;28.83;;;26.92;;
45274;SDS011;31019;43.780;25.948;2022-07-29T05:55:21;29.98;;;27.88;;
45274;SDS011;31019;43.780;25.948;2022-07-29T05:57:48;29.75;;;27.73;;
45274;SDS011;31019;43.780;25.948;2022-07-29T06:00:15;32.15;;;29.33;;
45274;SDS011;31019;43.780;25.948;2022-07-29T06:02:43;31.30;;;28.95;;
45274;SDS011;31019;43.780;25.948;2022-07-29T06:05:09;30.80;;;28.42;;
45274;SDS011;31019;43.780;25.948;2022-07-29T06:07:36;30.80;;;28.55;;
45274;SDS011;31019;43.780;25.948;2022-07-29T06:10:03;31.08;;;28.80;;
45274;SDS011;31019;43.780;25.948;2022-07-29T06:12:32;28.17;;;26.38;;
45274;SDS011;31019;43.780;25.948;2022-07-29T06:14:59;28.85;;;26.95;;
45274;SDS011;31019;43.780;25.948;2022-07-29T06:17:26;28.02;;;26.13;;
45274;SDS011;31019;43.780;25.948;2022-07-29T06:19:53;29.08;;;27.00;;
45274;SDS011;31019;43.780;25.948;2022-07-29T06:22:20;28.88;;;26.98;;
45274;SDS011;31019;43.780;25.948;2022-07-29T06:24:47;29.40;;;26.90;;
45274;SDS011;31019;43.780;25.948;2022-07-29T06:27:13;28.40;;;26.38;;
45274;SDS011;31019;43.780;25.948;2022-07-29T06:29:42;28.13;;;26.27;;
45274;SDS011;31019;43.780;25.948;2022-07-29T06:32:09;27.45;;;25.27;;
45274;SDS011;31019;43.780;25.948;2022-07-29T06:34:36;26.75;;;24.90;;
45274;SDS011;31019;43.780;25.948;2022-07-29T06:37:05;28.70;;;26.30;;
45274;SDS011;31019;43.780;25.948;2022-07-29T06:39:33;27.77;;;25.83;;
45274;SDS011;31019;43.780;25.948;2022-07-29T06:42:01;27.15;;;25.40;;
45274;SDS011;31019;43.780;25.948;2022-07-29T06:44:28;26.15;;;24.50;;
45274;SDS011;31019;43.780;25.948;2022-07-29T06:46:56;26.63;;;24.88;;
45274;SDS011;31019;43.780;25.948;2022-07-29T06:49:23;27.33;;;25.13;;
45274;SDS011;31019;43.780;25.948;2022-07-29T06:51:51;27.00;;;25.30;;
45274;SDS011;31019;43.780;25.948;2022-07-29T06:54:18;27.80;;;25.80;;
45274;SDS011;31019;43.780;25.948;2022-07-29T06:56:45;26.88;;;25.02;;
45274;SDS011;31019;43.780;25.948;2022-07-29T06:59:12;26.42;;;24.63;;
45274;SDS011;31019;43.780;25.948;2022-07-29T07:01:40;27.30;;;25.20;;
45274;SDS011;31019;43.780;25.948;2022-07-29T07:04:10;26.75;;;24.88;;
45274;SDS011;31019;43.780;25.948;2022-07-29T07:06:38;27.25;;;25.17;;
45274;SDS011;31019;43.780;25.948;2022-07-29T07:09:05;28.42;;;26.15;;
45274;SDS011;31019;43.780;25.948;2022-07-29T07:11:32;27.08;;;25.27;;
45274;SDS011;31019;43.780;25.948;2022-07-29T07:13:59;26.77;;;24.85;;
45274;SDS011;31019;43.780;25.948;2022-07-29T07:16:26;26.25;;;24.33;;
45274;SDS011;31019;43.780;25.948;2022-07-29T07:18:53;26.25;;;24.65;;
45274;SDS011;31019;43.780;25.948;2022-07-29T07:21:21;25.90;;;24.10;;
45274;SDS011;31019;43.780;25.948;2022-07-29T07:23:48;26.48;;;24.77;;
45274;SDS011;31019;43.780;25.948;2022-07-29T07:26:15;26.55;;;24.50;;
45274;SDS011;31019;43.780;25.948;2022-07-29T07:28:41;27.08;;;25.30;;
45274;SDS011;31019;43.780;25.948;2022-07-29T07:31:08;26.60;;;24.83;;
45274;SDS011;31019;43.780;25.948;2022-07-29T07:33:35;27.88;;;26.17;;
45274;SDS011;31019;43.780;25.948;2022-07-29T07:36:02;28.65;;;26.77;;
45274;SDS011;31019;43.780;25.948;2022-07-29T07:38:30;27.75;;;26.02;;
45274;SDS011;31019;43.780;25.948;2022-07-29T07:40:57;27.92;;;25.98;;
45274;SDS011;31019;43.780;25.948;2022-07-29T07:43:24;27.42;;;25.73;;
45274;SDS011;31019;43.780;25.948;2022-07-29T07:45:51;28.80;;;26.80;;
45274;SDS011;31019;43.780;25.948;2022-07-29T07:48:18;28.65;;;26.75;;
45274;SDS011;31019;43.780;25.948;2022-07-29T07:50:45;30.02;;;28.13;;
45274;SDS011;31019;43.780;25.948;2022-07-29T07:53:14;28.83;;;26.90;;
45274;SDS011;31019;43.780;25.948;2022-07-29T07:55:43;28.45;;;26.35;;
45274;SDS011;31019;43.780;25.948;2022-07-29T07:58:10;29.52;;;27.52;;
45274;SDS011;31019;43.780;25.948;2022-07-29T08:00:37;29.23;;;27.20;;
45274;SDS011;31019;43.780;25.948;2022-07-29T08:03:04;29.38;;;27.45;;
45274;SDS011;31019;43.780;25.948;2022-07-29T08:05:31;29.50;;;27.52;;
45274;SDS011;31019;43.780;25.948;2022-07-29T08:07:58;29.02;;;27.02;;
45274;SDS011;31019;43.780;25.948;2022-07-29T08:10:25;28.90;;;26.90;;
45274;SDS011;31019;43.780;25.948;2022-07-29T08:13:10;29.50;;;27.50;;
45274;SDS011;31019;43.780;25.948;2022-07-29T08:15:38;29.40;;;27.50;;
45274;SDS011;31019;43.780;25.948;2022-07-29T08:18:08;28.15;;;25.98;;
45274;SDS011;31019;43.780;25.948;2022-07-29T08:20:35;29.10;;;27.10;;
45274;SDS011;31019;43.780;25.948;2022-07-29T08:23:03;29.08;;;26.88;;
45274;SDS011;31019;43.780;25.948;2022-07-29T08:25:31;29.65;;;27.73;;
45274;SDS011;31019;43.780;25.948;2022-07-29T08:27:59;29.90;;;27.65;;
45274;SDS011;31019;43.780;25.948;2022-07-29T08:30:27;29.40;;;27.60;;
45274;SDS011;31019;43.780;25.948;2022-07-29T08:32:54;29.33;;;27.52;;
45274;SDS011;31019;43.780;25.948;2022-07-29T08:35:22;29.95;;;27.85;;
45274;SDS011;31019;43.780;25.948;2022-07-29T08:37:50;29.70;;;27.92;;
45274;SDS011;31019;43.780;25.948;2022-07-29T08:40:18;30.02;;;28.02;;
45274;SDS011;31019;43.780;25.948;2022-07-29T08:42:48;30.10;;;28.40;;
45274;SDS011;31019;43.780;25.948;2022-07-29T08:45:16;29.05;;;27.20;;
45274;SDS011;31019;43.780;25.948;2022-07-29T08:47:44;27.42;;;25.63;;
45274;SDS011;31019;43.780;25.948;2022-07-29T08:50:11;29.52;;;27.63;;
45274;SDS011;31019;43.780;25.948;2022-07-29T08:52:39;29.40;;;27.30;;
45274;SDS011;31019;43.780;25.948;2022-07-29T08:55:07;29.85;;;27.77;;
45274;SDS011;31019;43.780;25.948;2022-07-29T08:57:35;29.60;;;27.70;;
45274;SDS011;31019;43.780;25.948;2022-07-29T09:00:05;29.05;;;26.95;;
45274;SDS011;31019;43.780;25.948;2022-07-29T09:02:37;27.65;;;25.75;;
45274;SDS011;31019;43.780;25.948;2022-07-29T09:05:08;27.73;;;25.40;;
45274;SDS011;31019;43.780;25.948;2022-07-29T09:07:35;26.83;;;24.98;;
45274;SDS011;31019;43.780;25.948;2022-07-29T09:10:04;27.73;;;25.73;;
45274;SDS011;31019;43.780;25.948;2022-07-29T09:12:31;28.27;;;26.48;;
45274;SDS011;31019;43.780;25.948;2022-07-29T09:14:59;29.23;;;27.25;;
45274;SDS011;31019;43.780;25.948;2022-07-29T09:17:41;29.25;;;27.25;;
45274;SDS011;31019;43.780;25.948;2022-07-29T09:20:12;28.98;;;26.88;;
45274;SDS011;31019;43.780;25.948;2022-07-29T09:22:40;28.88;;;26.90;;
45274;SDS011;31019;43.780;25.948;2022-07-29T09:25:07;31.08;;;28.67;;
45274;SDS011;31019;43.780;25.948;2022-07-29T09:27:34;31.10;;;29.05;;
45274;SDS011;31019;43.780;25.948;2022-07-29T09:30:03;30.33;;;28.23;;
45274;SDS011;31019;43.780;25.948;2022-07-29T09:32:31;31.30;;;29.15;;
45274;SDS011;31019;43.780;25.948;2022-07-29T09:35:17;28.77;;;26.67;;
45274;SDS011;31019;43.780;25.948;2022-07-29T09:37:45;31.45;;;29.45;;
45274;SDS011;31019;43.780;25.948;2022-07-29T09:40:13;31.40;;;29.30;;
45274;SDS011;31019;43.780;25.948;2022-07-29T09:42:42;29.00;;;27.20;;
45274;SDS011;31019;43.780;25.948;2022-07-29T09:45:09;30.05;;;28.15;;
45274;SDS011;31019;43.780;25.948;2022-07-29T09:47:43;28.67;;;26.67;;
45274;SDS011;31019;43.780;25.948;2022-07-29T09:50:13;30.17;;;28.20;;
45274;SDS011;31019;43.780;25.948;2022-07-29T09:52:46;30.58;;;28.58;;
45274;SDS011;31019;43.780;25.948;2022-07-29T09:55:13;31.42;;;29.25;;
45274;SDS011;31019;43.780;25.948;2022-07-29T09:57:41;30.60;;;28.70;;
45274;SDS011;31019;43.780;25.948;2022-07-29T10:00:09;29.40;;;27.30;;
45274;SDS011;31019;43.780;25.948;2022-07-29T10:02:38;29.25;;;27.15;;
45274;SDS011;31019;43.780;25.948;2022-07-29T10:05:09;30.52;;;28.33;;
45274;SDS011;31019;43.780;25.948;2022-07-29T10:07:44;31.38;;;29.35;;
45274;SDS011;31019;43.780;25.948;2022-07-29T10:10:21;30.95;;;28.85;;
45274;SDS011;31019;43.780;25.948;2022-07-29T10:12:53;31.63;;;29.63;;
45274;SDS011;31019;43.780;25.948;2022-07-29T10:15:22;31.85;;;29.73;;
45274;SDS011;31019;43.780;25.948;2022-07-29T10:17:50;31.77;;;29.63;;
45274;SDS011;31019;43.780;25.948;2022-07-29T10:20:17;29.65;;;27.45;;
45274;SDS011;31019;43.780;25.948;2022-07-29T10:22:44;29.67;;;27.50;;
45274;SDS011;31019;43.780;25.948;2022-07-29T10:25:14;29.13;;;27.10;;
45274;SDS011;31019;43.780;25.948;2022-07-29T10:27:41;28.92;;;26.75;;
45274;SDS011;31019;43.780;25.948;2022-07-29T10:30:09;31.02;;;29.02;;
45274;SDS011;31019;43.780;25.948;2022-07-29T10:32:45;31.73;;;29.63;;
45274;SDS011;31019;43.780;25.948;2022-07-29T10:35:44;29.85;;;27.95;;
45274;SDS011;31019;43.780;25.948;2022-07-29T10:38:43;29.50;;;27.45;;
45274;SDS011;31019;43.780;25.948;2022-07-29T10:41:26;28.42;;;26.42;;
45274;SDS011;31019;43.780;25.948;2022-07-29T10:44:15;29.13;;;27.05;;
45274;SDS011;31019;43.780;25.948;2022-07-29T10:46:43;28.33;;;26.50;;
45274;SDS011;31019;43.780;25.948;2022-07-29T10:49:11;29.75;;;27.77;;
45274;SDS011;31019;43.780;25.948;2022-07-29T10:54:38;27.55;;;25.38;;
45274;SDS011;31019;43.780;25.948;2022-07-29T10:57:13;26.83;;;24.90;;
45274;SDS011;31019;43.780;25.948;2022-07-29T10:59:50;27.45;;;25.45;;
45274;SDS011;31019;43.780;25.948;2022-07-29T11:02:44;28.88;;;26.88;;
45274;SDS011;31019;43.780;25.948;2022-07-29T11:05:17;29.15;;;27.25;;
45274;SDS011;31019;43.780;25.948;2022-07-29T11:10:46;30.02;;;28.13;;
45274;SDS011;31019;43.780;25.948;2022-07-29T11:16:15;27.52;;;25.52;;
45274;SDS011;31019;43.780;25.948;2022-07-29T11:21:47;27.73;;;25.83;;
45274;SDS011;31019;43.780;25.948;2022-07-29T11:24:15;31.77;;;29.48;;
45274;SDS011;31019;43.780;25.948;2022-07-29T11:26:45;34.60;;;32.22;;
45274;SDS011;31019;43.780;25.948;2022-07-29T11:29:33;31.30;;;29.10;;
45274;SDS011;31019;43.780;25.948;2022-07-29T11:32:08;33.35;;;30.73;;
45274;SDS011;31019;43.780;25.948;2022-07-29T11:34:36;33.60;;;31.30;;
45274;SDS011;31019;43.780;25.948;2022-07-29T11:37:21;35.53;;;33.33;;
45274;SDS011;31019;43.780;25.948;2022-07-29T11:42:40;34.50;;;32.22;;
45274;SDS011;31019;43.780;25.948;2022-07-29T11:45:09;33.88;;;31.48;;
45274;SDS011;31019;43.780;25.948;2022-07-29T11:47:39;31.30;;;29.30;;
45274;SDS011;31019;43.780;25.948;2022-07-29T11:50:08;33.85;;;31.65;;
45274;SDS011;31019;43.780;25.948;2022-07-29T11:52:40;34.57;;;31.80;;
45274;SDS011;31019;43.780;25.948;2022-07-29T11:55:11;35.00;;;32.90;;
45274;SDS011;31019;43.780;25.948;2022-07-29T11:57:51;35.60;;;33.40;;
45274;SDS011;31019;43.780;25.948;2022-07-29T12:00:23;35.13;;;32.75;;
45274;SDS011;31019;43.780;25.948;2022-07-29T12:02:53;37.28;;;34.88;;
45274;SDS011;31019;43.780;25.948;2022-07-29T12:05:20;36.88;;;34.47;;
45274;SDS011;31019;43.780;25.948;2022-07-29T12:07:47;35.72;;;33.42;;
45274;SDS011;31019;43.780;25.948;2022-07-29T12:10:15;36.30;;;34.00;;
45274;SDS011;31019;43.780;25.948;2022-07-29T12:12:42;36.33;;;34.13;;
45274;SDS011;31019;43.780;25.948;2022-07-29T12:15:17;35.63;;;33.33;;
45274;SDS011;31019;43.780;25.948;2022-07-29T12:17:45;34.10;;;31.90;;
45274;SDS011;31019;43.780;25.948;2022-07-29T12:20:13;37.35;;;35.13;;
45274;SDS011;31019;43.780;25.948;2022-07-29T12:22:48;36.10;;;33.95;;
45274;SDS011;31019;43.780;25.948;2022-07-29T12:25:15;33.10;;;30.88;;
45274;SDS011;31019;43.780;25.948;2022-07-29T12:27:43;32.22;;;30.17;;
45274;SDS011;31019;43.780;25.948;2022-07-29T12:30:11;33.33;;;31.13;;
45274;SDS011;31019;43.780;25.948;2022-07-29T12:32:42;32.65;;;30.58;;
45274;SDS011;31019;43.780;25.948;2022-07-29T12:35:11;33.17;;;31.08;;
45274;SDS011;31019;43.780;25.948;2022-07-29T12:37:40;34.05;;;32.05;;
45274;SDS011;31019;43.780;25.948;2022-07-29T12:40:09;33.85;;;31.85;;
45274;SDS011;31019;43.780;25.948;2022-07-29T12:42:37;33.65;;;31.83;;
45274;SDS011;31019;43.780;25.948;2022-07-29T12:45:06;35.03;;;32.97;;
45274;SDS011;31019;43.780;25.948;2022-07-29T12:47:37;33.85;;;31.75;;
45274;SDS011;31019;43.780;25.948;2022-07-29T12:50:18;34.67;;;32.63;;
45274;SDS011;31019;43.780;25.948;2022-07-29T12:52:46;35.83;;;33.72;;
45274;SDS011;31019;43.780;25.948;2022-07-29T12:55:13;34.72;;;32.55;;
45274;SDS011;31019;43.780;25.948;2022-07-29T12:57:46;32.08;;;30.08;;
45274;SDS011;31019;43.780;25.948;2022-07-29T13:00:14;32.10;;;29.42;;
45274;SDS011;31019;43.780;25.948;2022-07-29T13:02:42;31.67;;;29.88;;
45274;SDS011;31019;43.780;25.948;2022-07-29T13:05:11;35.45;;;33.20;;
45274;SDS011;31019;43.780;25.948;2022-07-29T13:07:38;38.00;;;35.35;;
45274;SDS011;31019;43.780;25.948;2022-07-29T13:10:09;38.15;;;35.90;;
45274;SDS011;31019;43.780;25.948;2022-07-29T13:12:38;51.63;;;48.15;;
45274;SDS011;31019;43.780;25.948;2022-07-29T13:15:24;37.28;;;35.08;;
45274;SDS011;31019;43.780;25.948;2022-07-29T13:17:51;38.03;;;34.88;;
45274;SDS011;31019;43.780;25.948;2022-07-29T13:20:23;34.58;;;32.35;;
45274;SDS011;31019;43.780;25.948;2022-07-29T13:22:52;35.70;;;33.47;;
45274;SDS011;31019;43.780;25.948;2022-07-29T13:25:23;38.50;;;35.38;;
45274;SDS011;31019;43.780;25.948;2022-07-29T13:27:51;38.20;;;35.65;;
45274;SDS011;31019;43.780;25.948;2022-07-29T13:30:19;37.22;;;34.90;;
45274;SDS011;31019;43.780;25.948;2022-07-29T13:32:47;36.75;;;34.35;;
45274;SDS011;31019;43.780;25.948;2022-07-29T13:35:14;36.95;;;34.65;;
45274;SDS011;31019;43.780;25.948;2022-07-29T13:37:43;33.35;;;31.05;;
45274;SDS011;31019;43.780;25.948;2022-07-29T13:40:10;33.40;;;31.15;;
45274;SDS011;31019;43.780;25.948;2022-07-29T13:42:38;33.00;;;30.80;;
45274;SDS011;31019;43.780;25.948;2022-07-29T13:45:06;32.95;;;30.95;;
45274;SDS011;31019;43.780;25.948;2022-07-29T13:47:34;34.83;;;32.72;;
45274;SDS011;31019;43.780;25.948;2022-07-29T13:50:01;33.33;;;31.00;;
45274;SDS011;31019;43.780;25.948;2022-07-29T13:52:28;35.30;;;33.20;;
45274;SDS011;31019;43.780;25.948;2022-07-29T13:54:57;36.42;;;34.22;;
45274;SDS011;31019;43.780;25.948;2022-07-29T13:57:24;35.85;;;33.65;;
45274;SDS011;31019;43.780;25.948;2022-07-29T13:59:50;32.45;;;30.15;;
45274;SDS011;31019;43.780;25.948;2022-07-29T14:02:17;30.50;;;28.60;;
45274;SDS011;31019;43.780;25.948;2022-07-29T14:04:44;30.33;;;28.42;;
45274;SDS011;31019;43.780;25.948;2022-07-29T14:07:13;32.22;;;30.23;;
45274;SDS011;31019;43.780;25.948;2022-07-29T14:09:40;29.63;;;27.63;;
45274;SDS011;31019;43.780;25.948;2022-07-29T14:12:08;29.95;;;27.95;;
45274;SDS011;31019;43.780;25.948;2022-07-29T14:14:35;30.00;;;28.00;;
45274;SDS011;31019;43.780;25.948;2022-07-29T14:17:02;29.92;;;27.63;;
45274;SDS011;31019;43.780;25.948;2022-07-29T14:19:31;29.88;;;27.80;;
45274;SDS011;31019;43.780;25.948;2022-07-29T14:22:01;31.52;;;29.33;;
45274;SDS011;31019;43.780;25.948;2022-07-29T14:24:28;31.13;;;29.13;;
45274;SDS011;31019;43.780;25.948;2022-07-29T14:26:55;31.13;;;29.05;;
45274;SDS011;31019;43.780;25.948;2022-07-29T14:29:24;31.70;;;29.33;;
45274;SDS011;31019;43.780;25.948;2022-07-29T14:31:51;33.30;;;31.23;;
45274;SDS011;31019;43.780;25.948;2022-07-29T14:34:17;31.00;;;29.17;;
45274;SDS011;31019;43.780;25.948;2022-07-29T14:36:45;29.88;;;27.98;;
45274;SDS011;31019;43.780;25.948;2022-07-29T14:39:11;30.42;;;28.52;;
45274;SDS011;31019;43.780;25.948;2022-07-29T14:41:40;31.88;;;29.88;;
45274;SDS011;31019;43.780;25.948;2022-07-29T14:44:07;31.35;;;29.38;;
45274;SDS011;31019;43.780;25.948;2022-07-29T14:46:35;29.27;;;27.27;;